Terminal Aerodrome Forecast
Issued by NWS Cleveland, OH

Home | Current Version | Previous Version | Text Only | Print | Product List | Glossary On
Versions: 1 2 3 4 5 6 7 8 9 10 11 12 13 14 15
000
FTUS41 KCLE 222300
TAFMFD
TAF
KMFD 222340Z 2300/2324 22008KT P6SM SCT050
     FM231200 25008KT P6SM VCSH BKN045 OVC100
      TEMPO 2314/2318 30007KT 5SM -SHRA BKN014
     FM231800 32008KT P6SM BKN016 OVC030=

USA.gov is the U.S. government's official web portal to all federal, state and local government web resources and services.